sensor_id;sensor_type;location;lat;lon;timestamp;temperature;humidity
63899;HTU21D;50070;-32.946;-60.652;2024-03-02T00:01:12;30.62;101.09
63899;HTU21D;50070;-32.946;-60.652;2024-03-02T00:03:40;30.60;101.24
63899;HTU21D;50070;-32.946;-60.652;2024-03-02T00:06:09;30.70;100.53
63899;HTU21D;50070;-32.946;-60.652;2024-03-02T00:08:36;30.78;99.64
63899;HTU21D;50070;-32.946;-60.652;2024-03-02T00:11:03;30.63;100.99
63899;HTU21D;50070;-32.946;-60.652;2024-03-02T00:13:30;30.61;101.39
63899;HTU21D;50070;-32.946;-60.652;2024-03-02T00:16:01;30.62;101.38
63899;HTU21D;50070;-32.946;-60.652;2024-03-02T00:18:34;30.64;101.30
63899;HTU21D;50070;-32.946;-60.652;2024-03-02T00:21:02;30.56;101.73
63899;HTU21D;50070;-32.946;-60.652;2024-03-02T00:23:33;30.67;101.71
63899;HTU21D;50070;-32.946;-60.652;2024-03-02T00:26:01;30.62;102.53
63899;HTU21D;50070;-32.946;-60.652;2024-03-02T00:28:31;30.61;102.89
63899;HTU21D;50070;-32.946;-60.652;2024-03-02T00:31:05;30.57;103.57
63899;HTU21D;50070;-32.946;-60.652;2024-03-02T00:33:44;30.45;104.87
63899;HTU21D;50070;-32.946;-60.652;2024-03-02T00:36:16;30.41;105.24
63899;HTU21D;50070;-32.946;-60.652;2024-03-02T00:38:53;30.50;105.59
63899;HTU21D;50070;-32.946;-60.652;2024-03-02T00:41:31;30.54;105.78
63899;HTU21D;50070;-32.946;-60.652;2024-03-02T00:44:06;30.56;105.31
63899;HTU21D;50070;-32.946;-60.652;2024-03-02T00:46:38;30.50;106.04
63899;HTU21D;50070;-32.946;-60.652;2024-03-02T00:49:11;30.36;106.81
63899;HTU21D;50070;-32.946;-60.652;2024-03-02T00:51:39;30.45;106.62
63899;HTU21D;50070;-32.946;-60.652;2024-03-02T00:54:09;30.27;107.59
63899;HTU21D;50070;-32.946;-60.652;2024-03-02T00:56:36;30.41;107.46
63899;HTU21D;50070;-32.946;-60.652;2024-03-02T00:59:03;30.20;109.04
63899;HTU21D;50070;-32.946;-60.652;2024-03-02T01:01:30;30.32;109.01
63899;HTU21D;50070;-32.946;-60.652;2024-03-02T01:03:57;30.34;109.16
63899;HTU21D;50070;-32.946;-60.652;2024-03-02T01:06:23;30.31;109.36
63899;HTU21D;50070;-32.946;-60.652;2024-03-02T01:08:50;30.32;109.74
63899;HTU21D;50070;-32.946;-60.652;2024-03-02T01:11:18;30.37;109.81
63899;HTU21D;50070;-32.946;-60.652;2024-03-02T01:13:45;30.37;110.36
63899;HTU21D;50070;-32.946;-60.652;2024-03-02T01:16:12;30.27;110.81
63899;HTU21D;50070;-32.946;-60.652;2024-03-02T01:18:39;30.25;111.59
63899;HTU21D;50070;-32.946;-60.652;2024-03-02T01:21:06;30.18;112.66
63899;HTU21D;50070;-32.946;-60.652;2024-03-02T01:23:33;30.27;112.28
63899;HTU21D;50070;-32.946;-60.652;2024-03-02T01:26:00;30.08;113.80
63899;HTU21D;50070;-32.946;-60.652;2024-03-02T01:28:26;30.23;113.06
63899;HTU21D;50070;-32.946;-60.652;2024-03-02T01:30:53;30.28;113.15
63899;HTU21D;50070;-32.946;-60.652;2024-03-02T01:33:20;30.26;113.83
63899;HTU21D;50070;-32.946;-60.652;2024-03-02T01:35:47;30.19;113.69
63899;HTU21D;50070;-32.946;-60.652;2024-03-02T01:38:14;30.21;114.26
63899;HTU21D;50070;-32.946;-60.652;2024-03-02T01:40:42;30.21;115.23
63899;HTU21D;50070;-32.946;-60.652;2024-03-02T01:43:10;30.16;115.51
63899;HTU21D;50070;-32.946;-60.652;2024-03-02T01:45:37;29.96;116.98
63899;HTU21D;50070;-32.946;-60.652;2024-03-02T01:48:07;30.09;116.55
63899;HTU21D;50070;-32.946;-60.652;2024-03-02T01:50:35;30.04;116.99
63899;HTU21D;50070;-32.946;-60.652;2024-03-02T01:53:02;30.08;117.02
63899;HTU21D;50070;-32.946;-60.652;2024-03-02T01:55:29;30.01;118.25
63899;HTU21D;50070;-32.946;-60.652;2024-03-02T01:57:56;30.03;118.14
63899;HTU21D;50070;-32.946;-60.652;2024-03-02T02:00:24;29.94;118.99
63899;HTU21D;50070;-32.946;-60.652;2024-03-02T02:02:52;29.95;118.99
63899;HTU21D;50070;-32.946;-60.652;2024-03-02T02:05:20;29.87;118.99
63899;HTU21D;50070;-32.946;-60.652;2024-03-02T02:07:47;29.97;118.99
63899;HTU21D;50070;-32.946;-60.652;2024-03-02T02:10:14;29.88;118.99
63899;HTU21D;50070;-32.946;-60.652;2024-03-02T02:12:41;29.89;118.99
63899;HTU21D;50070;-32.946;-60.652;2024-03-02T02:15:28;30.00;118.99
63899;HTU21D;50070;-32.946;-60.652;2024-03-02T02:17:56;29.87;118.99
63899;HTU21D;50070;-32.946;-60.652;2024-03-02T02:20:24;29.82;118.99
63899;HTU21D;50070;-32.946;-60.652;2024-03-02T02:23:02;29.75;118.99
63899;HTU21D;50070;-32.946;-60.652;2024-03-02T02:25:29;29.86;118.99
63899;HTU21D;50070;-32.946;-60.652;2024-03-02T02:27:56;29.92;118.99
63899;HTU21D;50070;-32.946;-60.652;2024-03-02T02:30:25;29.94;118.99
63899;HTU21D;50070;-32.946;-60.652;2024-03-02T02:32:53;29.78;118.99
63899;HTU21D;50070;-32.946;-60.652;2024-03-02T02:35:20;29.65;118.99
63899;HTU21D;50070;-32.946;-60.652;2024-03-02T02:37:47;29.90;118.99
63899;HTU21D;50070;-32.946;-60.652;2024-03-02T02:40:15;29.94;118.99
63899;HTU21D;50070;-32.946;-60.652;2024-03-02T02:42:42;30.01;118.99
63899;HTU21D;50070;-32.946;-60.652;2024-03-02T02:45:09;29.85;118.99
63899;HTU21D;50070;-32.946;-60.652;2024-03-02T02:47:37;29.95;118.99
63899;HTU21D;50070;-32.946;-60.652;2024-03-02T02:50:04;29.79;118.99
63899;HTU21D;50070;-32.946;-60.652;2024-03-02T02:52:32;29.96;118.99
63899;HTU21D;50070;-32.946;-60.652;2024-03-02T02:54:59;29.85;118.99
63899;HTU21D;50070;-32.946;-60.652;2024-03-02T02:57:26;30.01;118.99
63899;HTU21D;50070;-32.946;-60.652;2024-03-02T02:59:54;30.08;118.99
63899;HTU21D;50070;-32.946;-60.652;2024-03-02T03:02:20;30.03;118.99
63899;HTU21D;50070;-32.946;-60.652;2024-03-02T03:04:47;29.68;118.99
63899;HTU21D;50070;-32.946;-60.652;2024-03-02T03:07:14;29.73;118.99
63899;HTU21D;50070;-32.946;-60.652;2024-03-02T03:09:41;29.87;118.99
63899;HTU21D;50070;-32.946;-60.652;2024-03-02T03:12:08;29.73;118.99
63899;HTU21D;50070;-32.946;-60.652;2024-03-02T03:14:34;29.75;118.99
63899;HTU21D;50070;-32.946;-60.652;2024-03-02T03:17:01;29.77;118.99
63899;HTU21D;50070;-32.946;-60.652;2024-03-02T03:19:27;29.80;118.99
63899;HTU21D;50070;-32.946;-60.652;2024-03-02T03:21:54;29.90;118.99
63899;HTU21D;50070;-32.946;-60.652;2024-03-02T03:24:21;29.74;118.99
63899;HTU21D;50070;-32.946;-60.652;2024-03-02T03:26:48;29.95;118.44
63899;HTU21D;50070;-32.946;-60.652;2024-03-02T03:29:14;29.79;118.57
63899;HTU21D;50070;-32.946;-60.652;2024-03-02T03:31:41;29.68;118.99
63899;HTU21D;50070;-32.946;-60.652;2024-03-02T03:34:08;29.86;116.50
63899;HTU21D;50070;-32.946;-60.652;2024-03-02T03:36:35;29.93;114.05
63899;HTU21D;50070;-32.946;-60.652;2024-03-02T03:39:01;29.81;114.45
63899;HTU21D;50070;-32.946;-60.652;2024-03-02T03:41:29;29.78;115.03
63899;HTU21D;50070;-32.946;-60.652;2024-03-02T03:43:56;29.71;114.40
63899;HTU21D;50070;-32.946;-60.652;2024-03-02T03:46:22;29.78;113.58
63899;HTU21D;50070;-32.946;-60.652;2024-03-02T03:48:49;29.79;112.14
63899;HTU21D;50070;-32.946;-60.652;2024-03-02T03:51:16;29.93;111.33
63899;HTU21D;50070;-32.946;-60.652;2024-03-02T03:53:43;29.92;109.91
63899;HTU21D;50070;-32.946;-60.652;2024-03-02T03:56:10;29.98;109.43
63899;HTU21D;50070;-32.946;-60.652;2024-03-02T03:58:37;30.03;108.27
63899;HTU21D;50070;-32.946;-60.652;2024-03-02T04:01:03;29.88;108.99
63899;HTU21D;50070;-32.946;-60.652;2024-03-02T04:03:30;29.74;109.11
63899;HTU21D;50070;-32.946;-60.652;2024-03-02T04:05:57;29.76;109.49
63899;HTU21D;50070;-32.946;-60.652;2024-03-02T04:08:24;29.82;108.32
63899;HTU21D;50070;-32.946;-60.652;2024-03-02T04:10:50;29.68;107.85
63899;HTU21D;50070;-32.946;-60.652;2024-03-02T04:13:18;29.65;107.40
63899;HTU21D;50070;-32.946;-60.652;2024-03-02T04:15:44;29.80;106.01
63899;HTU21D;50070;-32.946;-60.652;2024-03-02T04:18:11;29.91;105.11
63899;HTU21D;50070;-32.946;-60.652;2024-03-02T04:20:38;29.59;105.72
63899;HTU21D;50070;-32.946;-60.652;2024-03-02T04:23:04;29.54;106.04
63899;HTU21D;50070;-32.946;-60.652;2024-03-02T04:25:31;29.59;106.71
63899;HTU21D;50070;-32.946;-60.652;2024-03-02T04:27:58;29.48;106.68
63899;HTU21D;50070;-32.946;-60.652;2024-03-02T04:30:25;29.44;105.67
63899;HTU21D;50070;-32.946;-60.652;2024-03-02T04:32:52;29.37;106.01
63899;HTU21D;50070;-32.946;-60.652;2024-03-02T04:35:18;29.32;107.76
63899;HTU21D;50070;-32.946;-60.652;2024-03-02T04:37:45;29.21;108.23
63899;HTU21D;50070;-32.946;-60.652;2024-03-02T04:40:12;29.20;107.19
63899;HTU21D;50070;-32.946;-60.652;2024-03-02T04:42:39;29.36;106.54
63899;HTU21D;50070;-32.946;-60.652;2024-03-02T04:45:06;29.24;106.64
63899;HTU21D;50070;-32.946;-60.652;2024-03-02T04:47:33;29.30;105.91
63899;HTU21D;50070;-32.946;-60.652;2024-03-02T04:50:00;29.27;106.56
63899;HTU21D;50070;-32.946;-60.652;2024-03-02T04:52:27;29.26;105.97
63899;HTU21D;50070;-32.946;-60.652;2024-03-02T04:54:54;29.14;106.45
63899;HTU21D;50070;-32.946;-60.652;2024-03-02T04:57:43;29.04;107.11
63899;HTU21D;50070;-32.946;-60.652;2024-03-02T05:00:10;29.02;106.95
63899;HTU21D;50070;-32.946;-60.652;2024-03-02T05:02:38;29.23;105.21
63899;HTU21D;50070;-32.946;-60.652;2024-03-02T05:05:05;29.09;106.27
63899;HTU21D;50070;-32.946;-60.652;2024-03-02T05:07:32;29.07;106.59
63899;HTU21D;50070;-32.946;-60.652;2024-03-02T05:09:59;29.13;105.64
63899;HTU21D;50070;-32.946;-60.652;2024-03-02T05:12:25;28.95;106.61
63899;HTU21D;50070;-32.946;-60.652;2024-03-02T05:15:16;28.84;107.59
63899;HTU21D;50070;-32.946;-60.652;2024-03-02T05:17:44;28.89;107.53
63899;HTU21D;50070;-32.946;-60.652;2024-03-02T05:20:11;28.63;109.41
63899;HTU21D;50070;-32.946;-60.652;2024-03-02T05:22:39;28.77;108.46
63899;HTU21D;50070;-32.946;-60.652;2024-03-02T05:25:07;28.87;108.10
63899;HTU21D;50070;-32.946;-60.652;2024-03-02T05:27:33;28.86;108.41
63899;HTU21D;50070;-32.946;-60.652;2024-03-02T05:30:00;28.71;108.81
63899;HTU21D;50070;-32.946;-60.652;2024-03-02T05:32:27;28.67;108.50
63899;HTU21D;50070;-32.946;-60.652;2024-03-02T05:34:54;28.73;108.68
63899;HTU21D;50070;-32.946;-60.652;2024-03-02T05:37:21;28.72;108.59
63899;HTU21D;50070;-32.946;-60.652;2024-03-02T05:39:48;28.47;110.23
63899;HTU21D;50070;-32.946;-60.652;2024-03-02T05:42:15;28.64;109.59
63899;HTU21D;50070;-32.946;-60.652;2024-03-02T05:44:42;28.64;109.15
63899;HTU21D;50070;-32.946;-60.652;2024-03-02T05:47:09;28.47;110.36
63899;HTU21D;50070;-32.946;-60.652;2024-03-02T05:49:36;28.55;110.08
63899;HTU21D;50070;-32.946;-60.652;2024-03-02T05:52:03;28.53;110.24
63899;HTU21D;50070;-32.946;-60.652;2024-03-02T05:54:30;28.57;110.79
63899;HTU21D;50070;-32.946;-60.652;2024-03-02T05:56:56;28.29;112.21
63899;HTU21D;50070;-32.946;-60.652;2024-03-02T05:59:23;28.08;114.41
63899;HTU21D;50070;-32.946;-60.652;2024-03-02T06:01:50;28.39;112.72
63899;HTU21D;50070;-32.946;-60.652;2024-03-02T06:04:17;28.40;113.03
63899;HTU21D;50070;-32.946;-60.652;2024-03-02T06:06:44;28.15;114.35
63899;HTU21D;50070;-32.946;-60.652;2024-03-02T06:09:11;28.31;113.38
63899;HTU21D;50070;-32.946;-60.652;2024-03-02T06:11:42;28.25;113.93
63899;HTU21D;50070;-32.946;-60.652;2024-03-02T06:14:09;28.33;113.29
63899;HTU21D;50070;-32.946;-60.652;2024-03-02T06:16:36;28.18;114.06
63899;HTU21D;50070;-32.946;-60.652;2024-03-02T06:19:02;28.02;115.98
63899;HTU21D;50070;-32.946;-60.652;2024-03-02T06:21:29;28.23;114.11
63899;HTU21D;50070;-32.946;-60.652;2024-03-02T06:23:56;28.05;115.41
63899;HTU21D;50070;-32.946;-60.652;2024-03-02T06:26:23;28.13;114.97
63899;HTU21D;50070;-32.946;-60.652;2024-03-02T06:28:49;28.10;115.17
63899;HTU21D;50070;-32.946;-60.652;2024-03-02T06:31:16;28.17;114.89
63899;HTU21D;50070;-32.946;-60.652;2024-03-02T06:33:43;28.09;115.46
63899;HTU21D;50070;-32.946;-60.652;2024-03-02T06:36:10;28.29;113.76
63899;HTU21D;50070;-32.946;-60.652;2024-03-02T06:38:38;28.04;115.33
63899;HTU21D;50070;-32.946;-60.652;2024-03-02T06:41:06;28.10;114.65
63899;HTU21D;50070;-32.946;-60.652;2024-03-02T06:43:33;28.15;114.36
63899;HTU21D;50070;-32.946;-60.652;2024-03-02T06:46:00;28.08;114.67
63899;HTU21D;50070;-32.946;-60.652;2024-03-02T06:48:27;28.04;115.44
63899;HTU21D;50070;-32.946;-60.652;2024-03-02T06:50:56;27.79;118.82
63899;HTU21D;50070;-32.946;-60.652;2024-03-02T06:53:24;27.65;118.69
63899;HTU21D;50070;-32.946;-60.652;2024-03-02T06:55:51;27.79;118.30
63899;HTU21D;50070;-32.946;-60.652;2024-03-02T06:58:17;27.69;118.59
63899;HTU21D;50070;-32.946;-60.652;2024-03-02T07:00:44;27.60;118.86
63899;HTU21D;50070;-32.946;-60.652;2024-03-02T07:03:11;27.69;117.81
63899;HTU21D;50070;-32.946;-60.652;2024-03-02T07:05:38;27.69;117.78
63899;HTU21D;50070;-32.946;-60.652;2024-03-02T07:08:05;27.74;117.63
63899;HTU21D;50070;-32.946;-60.652;2024-03-02T07:10:32;27.63;118.54
63899;HTU21D;50070;-32.946;-60.652;2024-03-02T07:12:59;27.72;117.34
63899;HTU21D;50070;-32.946;-60.652;2024-03-02T07:15:25;27.63;118.81
63899;HTU21D;50070;-32.946;-60.652;2024-03-02T07:17:55;27.76;117.38
63899;HTU21D;50070;-32.946;-60.652;2024-03-02T07:20:22;27.59;118.36
63899;HTU21D;50070;-32.946;-60.652;2024-03-02T07:22:49;27.67;118.39
63899;HTU21D;50070;-32.946;-60.652;2024-03-02T07:25:15;27.56;118.65
63899;HTU21D;50070;-32.946;-60.652;2024-03-02T07:27:42;27.70;117.74
63899;HTU21D;50070;-32.946;-60.652;2024-03-02T07:30:13;27.58;118.66
63899;HTU21D;50070;-32.946;-60.652;2024-03-02T07:32:40;27.47;118.99
63899;HTU21D;50070;-32.946;-60.652;2024-03-02T07:35:08;27.56;118.99
63899;HTU21D;50070;-32.946;-60.652;2024-03-02T07:37:35;27.24;118.99
63899;HTU21D;50070;-32.946;-60.652;2024-03-02T07:40:01;27.32;118.99
63899;HTU21D;50070;-32.946;-60.652;2024-03-02T07:42:29;27.31;118.99
63899;HTU21D;50070;-32.946;-60.652;2024-03-02T07:44:55;27.25;118.99
63899;HTU21D;50070;-32.946;-60.652;2024-03-02T07:47:22;27.36;118.99
63899;HTU21D;50070;-32.946;-60.652;2024-03-02T07:49:49;27.38;118.99
63899;HTU21D;50070;-32.946;-60.652;2024-03-02T07:52:16;27.28;118.99
63899;HTU21D;50070;-32.946;-60.652;2024-03-02T07:54:42;27.36;118.99
63899;HTU21D;50070;-32.946;-60.652;2024-03-02T07:57:09;27.58;118.99
63899;HTU21D;50070;-32.946;-60.652;2024-03-02T07:59:40;27.29;118.99
63899;HTU21D;50070;-32.946;-60.652;2024-03-02T08:02:07;27.54;118.99
63899;HTU21D;50070;-32.946;-60.652;2024-03-02T08:04:34;27.41;118.99
63899;HTU21D;50070;-32.946;-60.652;2024-03-02T08:07:02;27.34;118.99
63899;HTU21D;50070;-32.946;-60.652;2024-03-02T08:09:29;27.44;118.99
63899;HTU21D;50070;-32.946;-60.652;2024-03-02T08:11:56;27.54;118.99
63899;HTU21D;50070;-32.946;-60.652;2024-03-02T08:14:24;27.36;118.99
63899;HTU21D;50070;-32.946;-60.652;2024-03-02T08:16:51;27.31;118.99
63899;HTU21D;50070;-32.946;-60.652;2024-03-02T08:19:18;27.34;118.99
63899;HTU21D;50070;-32.946;-60.652;2024-03-02T08:21:45;27.15;118.99
63899;HTU21D;50070;-32.946;-60.652;2024-03-02T08:24:12;27.23;118.99
63899;HTU21D;50070;-32.946;-60.652;2024-03-02T08:26:38;27.22;118.99
63899;HTU21D;50070;-32.946;-60.652;2024-03-02T08:29:05;27.28;118.99
63899;HTU21D;50070;-32.946;-60.652;2024-03-02T08:31:32;27.35;118.99
63899;HTU21D;50070;-32.946;-60.652;2024-03-02T08:33:59;27.43;118.99
63899;HTU21D;50070;-32.946;-60.652;2024-03-02T08:36:26;27.45;118.99
63899;HTU21D;50070;-32.946;-60.652;2024-03-02T08:38:53;27.38;118.99
63899;HTU21D;50070;-32.946;-60.652;2024-03-02T08:41:20;27.46;118.99
63899;HTU21D;50070;-32.946;-60.652;2024-03-02T08:43:47;27.43;118.99
63899;HTU21D;50070;-32.946;-60.652;2024-03-02T08:46:14;27.11;118.99
63899;HTU21D;50070;-32.946;-60.652;2024-03-02T08:48:40;27.08;118.99
63899;HTU21D;50070;-32.946;-60.652;2024-03-02T08:51:07;27.26;118.99
63899;HTU21D;50070;-32.946;-60.652;2024-03-02T08:53:34;27.45;118.99
63899;HTU21D;50070;-32.946;-60.652;2024-03-02T08:56:01;27.13;118.99
63899;HTU21D;50070;-32.946;-60.652;2024-03-02T08:58:28;27.01;118.99
63899;HTU21D;50070;-32.946;-60.652;2024-03-02T09:00:55;27.00;118.99
63899;HTU21D;50070;-32.946;-60.652;2024-03-02T09:03:22;26.96;118.99
63899;HTU21D;50070;-32.946;-60.652;2024-03-02T09:05:48;26.90;118.99
63899;HTU21D;50070;-32.946;-60.652;2024-03-02T09:08:15;26.96;118.99
63899;HTU21D;50070;-32.946;-60.652;2024-03-02T09:10:42;26.83;118.99
63899;HTU21D;50070;-32.946;-60.652;2024-03-02T09:13:10;26.87;118.99
63899;HTU21D;50070;-32.946;-60.652;2024-03-02T09:15:36;27.06;118.99
63899;HTU21D;50070;-32.946;-60.652;2024-03-02T09:18:05;27.05;118.99
63899;HTU21D;50070;-32.946;-60.652;2024-03-02T09:20:32;27.15;118.99
63899;HTU21D;50070;-32.946;-60.652;2024-03-02T09:22:59;26.97;118.99
63899;HTU21D;50070;-32.946;-60.652;2024-03-02T09:25:26;27.02;118.99
63899;HTU21D;50070;-32.946;-60.652;2024-03-02T09:27:53;27.16;118.99
63899;HTU21D;50070;-32.946;-60.652;2024-03-02T09:30:20;26.94;118.99
63899;HTU21D;50070;-32.946;-60.652;2024-03-02T09:32:46;26.94;118.99
63899;HTU21D;50070;-32.946;-60.652;2024-03-02T09:35:13;26.99;118.99
63899;HTU21D;50070;-32.946;-60.652;2024-03-02T09:37:40;26.92;118.99
63899;HTU21D;50070;-32.946;-60.652;2024-03-02T09:40:07;27.09;118.99
63899;HTU21D;50070;-32.946;-60.652;2024-03-02T09:42:35;26.89;118.99
63899;HTU21D;50070;-32.946;-60.652;2024-03-02T09:45:02;26.89;118.99
63899;HTU21D;50070;-32.946;-60.652;2024-03-02T09:47:29;26.97;118.99
63899;HTU21D;50070;-32.946;-60.652;2024-03-02T09:49:56;26.91;118.99
63899;HTU21D;50070;-32.946;-60.652;2024-03-02T09:52:23;26.87;118.99
63899;HTU21D;50070;-32.946;-60.652;2024-03-02T09:54:50;26.79;118.99
63899;HTU21D;50070;-32.946;-60.652;2024-03-02T09:57:17;26.63;118.99
63899;HTU21D;50070;-32.946;-60.652;2024-03-02T09:59:44;26.68;118.99
63899;HTU21D;50070;-32.946;-60.652;2024-03-02T10:02:11;26.72;118.99
63899;HTU21D;50070;-32.946;-60.652;2024-03-02T10:04:38;26.76;118.99
63899;HTU21D;50070;-32.946;-60.652;2024-03-02T10:07:16;26.85;118.99
63899;HTU21D;50070;-32.946;-60.652;2024-03-02T10:09:44;26.72;118.99
63899;HTU21D;50070;-32.946;-60.652;2024-03-02T10:12:13;26.75;118.99
63899;HTU21D;50070;-32.946;-60.652;2024-03-02T10:14:40;26.77;118.99
63899;HTU21D;50070;-32.946;-60.652;2024-03-02T10:17:12;26.92;118.99
63899;HTU21D;50070;-32.946;-60.652;2024-03-02T10:19:39;26.84;118.99
63899;HTU21D;50070;-32.946;-60.652;2024-03-02T10:22:07;26.93;118.99
63899;HTU21D;50070;-32.946;-60.652;2024-03-02T10:24:42;26.97;118.99
63899;HTU21D;50070;-32.946;-60.652;2024-03-02T10:27:16;27.01;118.99
63899;HTU21D;50070;-32.946;-60.652;2024-03-02T10:29:47;27.04;118.99
63899;HTU21D;50070;-32.946;-60.652;2024-03-02T10:32:14;27.10;118.99
63899;HTU21D;50070;-32.946;-60.652;2024-03-02T10:34:42;27.11;118.99
63899;HTU21D;50070;-32.946;-60.652;2024-03-02T10:37:11;27.20;118.99
63899;HTU21D;50070;-32.946;-60.652;2024-03-02T10:39:38;27.20;118.99
63899;HTU21D;50070;-32.946;-60.652;2024-03-02T10:42:08;27.17;118.99
63899;HTU21D;50070;-32.946;-60.652;2024-03-02T10:44:35;27.20;118.99
63899;HTU21D;50070;-32.946;-60.652;2024-03-02T10:47:05;27.17;118.99
63899;HTU21D;50070;-32.946;-60.652;2024-03-02T10:49:36;27.16;118.99
63899;HTU21D;50070;-32.946;-60.652;2024-03-02T10:52:04;27.06;118.99
63899;HTU21D;50070;-32.946;-60.652;2024-03-02T10:54:31;27.15;118.99
63899;HTU21D;50070;-32.946;-60.652;2024-03-02T10:57:04;27.24;118.99
63899;HTU21D;50070;-32.946;-60.652;2024-03-02T10:59:36;27.38;118.99
63899;HTU21D;50070;-32.946;-60.652;2024-03-02T11:02:07;27.41;118.99
63899;HTU21D;50070;-32.946;-60.652;2024-03-02T11:04:37;27.50;118.99
63899;HTU21D;50070;-32.946;-60.652;2024-03-02T11:07:10;27.46;118.99
63899;HTU21D;50070;-32.946;-60.652;2024-03-02T11:09:59;27.21;118.99
63899;HTU21D;50070;-32.946;-60.652;2024-03-02T11:12:31;27.25;118.99
63899;HTU21D;50070;-32.946;-60.652;2024-03-02T11:15:03;27.24;118.99
63899;HTU21D;50070;-32.946;-60.652;2024-03-02T11:17:31;27.24;118.99
63899;HTU21D;50070;-32.946;-60.652;2024-03-02T11:19:58;27.36;118.99
63899;HTU21D;50070;-32.946;-60.652;2024-03-02T11:22:25;27.35;118.99
63899;HTU21D;50070;-32.946;-60.652;2024-03-02T11:24:53;27.40;118.99
63899;HTU21D;50070;-32.946;-60.652;2024-03-02T11:33:06;27.19;118.99
63899;HTU21D;50070;-32.946;-60.652;2024-03-02T11:35:38;27.34;118.99
63899;HTU21D;50070;-32.946;-60.652;2024-03-02T11:38:09;27.43;118.99
63899;HTU21D;50070;-32.946;-60.652;2024-03-02T11:40:36;27.52;118.99
63899;HTU21D;50070;-32.946;-60.652;2024-03-02T11:43:05;27.51;118.99
63899;HTU21D;50070;-32.946;-60.652;2024-03-02T11:45:34;27.47;118.99
63899;HTU21D;50070;-32.946;-60.652;2024-03-02T11:48:06;27.43;118.99
63899;HTU21D;50070;-32.946;-60.652;2024-03-02T11:50:34;27.41;118.99
63899;HTU21D;50070;-32.946;-60.652;2024-03-02T11:53:08;27.40;118.99
63899;HTU21D;50070;-32.946;-60.652;2024-03-02T11:55:38;27.59;118.99
63899;HTU21D;50070;-32.946;-60.652;2024-03-02T11:58:13;27.65;118.99
63899;HTU21D;50070;-32.946;-60.652;2024-03-02T12:00:39;27.87;118.99
63899;HTU21D;50070;-32.946;-60.652;2024-03-02T12:03:12;27.93;118.99
63899;HTU21D;50070;-32.946;-60.652;2024-03-02T12:05:39;28.00;118.99
63899;HTU21D;50070;-32.946;-60.652;2024-03-02T12:08:07;27.97;118.99
63899;HTU21D;50070;-32.946;-60.652;2024-03-02T12:10:35;27.79;118.99
63899;HTU21D;50070;-32.946;-60.652;2024-03-02T12:13:04;27.75;118.99
63899;HTU21D;50070;-32.946;-60.652;2024-03-02T12:15:37;27.76;118.99
63899;HTU21D;50070;-32.946;-60.652;2024-03-02T12:18:05;28.02;118.99
63899;HTU21D;50070;-32.946;-60.652;2024-03-02T12:20:33;27.98;118.99
63899;HTU21D;50070;-32.946;-60.652;2024-03-02T12:23:01;27.82;118.99
63899;HTU21D;50070;-32.946;-60.652;2024-03-02T12:25:30;27.85;118.99
63899;HTU21D;50070;-32.946;-60.652;2024-03-02T12:28:00;27.98;118.99
63899;HTU21D;50070;-32.946;-60.652;2024-03-02T12:30:29;28.30;118.99
63899;HTU21D;50070;-32.946;-60.652;2024-03-02T12:32:56;28.30;118.99
63899;HTU21D;50070;-32.946;-60.652;2024-03-02T12:35:24;28.19;118.99
63899;HTU21D;50070;-32.946;-60.652;2024-03-02T12:37:53;28.43;118.99
63899;HTU21D;50070;-32.946;-60.652;2024-03-02T12:40:20;28.48;118.99
63899;HTU21D;50070;-32.946;-60.652;2024-03-02T12:42:49;28.59;118.99
63899;HTU21D;50070;-32.946;-60.652;2024-03-02T12:45:16;28.68;118.99
63899;HTU21D;50070;-32.946;-60.652;2024-03-02T12:47:50;28.71;118.99
63899;HTU21D;50070;-32.946;-60.652;2024-03-02T12:50:18;28.73;118.99
63899;HTU21D;50070;-32.946;-60.652;2024-03-02T12:52:50;28.93;118.99
63899;HTU21D;50070;-32.946;-60.652;2024-03-02T12:55:17;29.08;118.99
63899;HTU21D;50070;-32.946;-60.652;2024-03-02T12:57:44;29.23;118.99
63899;HTU21D;50070;-32.946;-60.652;2024-03-02T13:00:11;28.99;118.99
63899;HTU21D;50070;-32.946;-60.652;2024-03-02T13:02:42;28.85;118.99
63899;HTU21D;50070;-32.946;-60.652;2024-03-02T13:05:09;29.11;118.99
63899;HTU21D;50070;-32.946;-60.652;2024-03-02T13:07:39;29.05;118.99
63899;HTU21D;50070;-32.946;-60.652;2024-03-02T13:10:07;29.14;118.99
63899;HTU21D;50070;-32.946;-60.652;2024-03-02T13:12:36;29.44;118.99
63899;HTU21D;50070;-32.946;-60.652;2024-03-02T13:15:03;29.73;118.99
63899;HTU21D;50070;-32.946;-60.652;2024-03-02T13:17:31;29.62;118.99
63899;HTU21D;50070;-32.946;-60.652;2024-03-02T13:20:00;29.41;118.99
63899;HTU21D;50070;-32.946;-60.652;2024-03-02T13:22:27;29.34;118.99
63899;HTU21D;50070;-32.946;-60.652;2024-03-02T13:24:54;29.53;118.99
63899;HTU21D;50070;-32.946;-60.652;2024-03-02T13:27:21;29.63;118.99
63899;HTU21D;50070;-32.946;-60.652;2024-03-02T13:29:48;29.80;118.99
63899;HTU21D;50070;-32.946;-60.652;2024-03-02T13:32:15;29.96;118.99
63899;HTU21D;50070;-32.946;-60.652;2024-03-02T13:34:43;30.08;118.60
63899;HTU21D;50070;-32.946;-60.652;2024-03-02T13:37:10;30.20;117.89
63899;HTU21D;50070;-32.946;-60.652;2024-03-02T13:39:36;30.37;115.88
63899;HTU21D;50070;-32.946;-60.652;2024-03-02T13:42:11;30.21;116.80
63899;HTU21D;50070;-32.946;-60.652;2024-03-02T13:44:41;30.30;115.27
63899;HTU21D;50070;-32.946;-60.652;2024-03-02T13:47:11;30.65;112.43
63899;HTU21D;50070;-32.946;-60.652;2024-03-02T13:49:38;30.24;115.07
63899;HTU21D;50070;-32.946;-60.652;2024-03-02T13:52:09;30.36;114.65
63899;HTU21D;50070;-32.946;-60.652;2024-03-02T13:54:48;30.66;112.26
63899;HTU21D;50070;-32.946;-60.652;2024-03-02T13:57:15;30.75;111.35
63899;HTU21D;50070;-32.946;-60.652;2024-03-02T13:59:46;30.45;112.80
63899;HTU21D;50070;-32.946;-60.652;2024-03-02T14:02:12;30.38;113.62
63899;HTU21D;50070;-32.946;-60.652;2024-03-02T14:04:40;30.80;110.71
63899;HTU21D;50070;-32.946;-60.652;2024-03-02T14:07:07;30.52;110.46
63899;HTU21D;50070;-32.946;-60.652;2024-03-02T14:09:34;30.79;107.94
63899;HTU21D;50070;-32.946;-60.652;2024-03-02T14:12:00;30.83;108.89
63899;HTU21D;50070;-32.946;-60.652;2024-03-02T14:14:27;30.97;106.73
63899;HTU21D;50070;-32.946;-60.652;2024-03-02T14:16:57;30.98;107.56
63899;HTU21D;50070;-32.946;-60.652;2024-03-02T14:19:30;31.24;105.72
63899;HTU21D;50070;-32.946;-60.652;2024-03-02T14:21:57;30.91;106.30
63899;HTU21D;50070;-32.946;-60.652;2024-03-02T14:24:24;30.94;106.70
63899;HTU21D;50070;-32.946;-60.652;2024-03-02T14:26:55;30.99;105.63
63899;HTU21D;50070;-32.946;-60.652;2024-03-02T14:29:23;31.09;105.34
63899;HTU21D;50070;-32.946;-60.652;2024-03-02T14:31:50;30.62;109.93